createdAt,value
2022-10-07T00:02:14.930Z,34.65125
2022-10-07T00:07:16.447Z,34.86292
2022-10-07T00:12:18.113Z,35.74681
2022-10-07T00:17:19.771Z,34.90438
2022-10-07T00:22:21.425Z,35.0468
2022-10-07T00:27:22.877Z,36.15367
2022-10-07T00:32:24.393Z,36.4182
2022-10-07T00:37:25.895Z,36.96785
2022-10-07T00:42:27.390Z,36.51319
2022-10-07T00:47:29.223Z,37.4691
2022-10-07T00:52:30.899Z,38.13651
2022-10-07T00:57:32.613Z,34.71433
2022-10-07T01:02:34.432Z,35.39753
2022-10-07T01:07:35.932Z,32.78164
2022-10-07T01:12:37.557Z,32.60327
2022-10-07T01:17:39.495Z,33.15269
2022-10-07T01:22:40.931Z,33.45324
2022-10-07T01:27:43.126Z,34.04877
2022-10-07T01:32:45.234Z,35.00884
2022-10-07T01:37:47.430Z,36.24342
2022-10-07T01:42:49.452Z,37.30603
2022-10-07T01:47:51.568Z,36.91506
2022-10-07T01:52:53.299Z,37.6758
2022-10-07T01:57:55.015Z,38.31375
2022-10-07T02:02:56.800Z,37.79725
2022-10-07T02:07:58.442Z,38.78435
2022-10-07T02:12:59.987Z,38.83214
2022-10-07T02:18:01.629Z,38.87421
2022-10-07T02:23:03.453Z,38.64644
2022-10-07T02:28:05.042Z,38.04571
2022-10-07T02:33:06.739Z,38.84647
2022-10-07T02:38:08.391Z,40.22669
2022-10-07T02:43:09.965Z,40.81741
2022-10-07T02:48:11.597Z,41.22163
2022-10-07T02:53:13.352Z,41.56169
2022-10-07T02:58:15.103Z,40.75842
2022-10-07T03:03:17.179Z,39.85202
2022-10-07T03:08:18.641Z,41.6338
2022-10-07T03:13:20.430Z,41.89786
2022-10-07T03:18:22.400Z,42.82154
2022-10-07T03:23:24.137Z,42.58635
2022-10-07T03:28:25.946Z,42.12811
2022-10-07T03:33:27.725Z,42.71067
2022-10-07T03:38:29.533Z,43.20279
2022-10-07T03:43:31.350Z,43.21301
2022-10-07T03:48:33.302Z,42.27527
2022-10-07T03:53:35.073Z,41.48827
2022-10-07T03:58:36.789Z,41.66665
2022-10-07T04:03:38.777Z,43.28197
2022-10-07T04:08:40.507Z,44.00943
2022-10-07T04:13:42.287Z,44.48336
2022-10-07T04:18:44.482Z,43.24389
2022-10-07T04:23:46.267Z,42.52481
2022-10-07T04:28:48.126Z,43.76084
2022-10-07T04:33:50.187Z,44.5528
2022-10-07T04:38:51.925Z,44.51721
2022-10-07T04:43:57.535Z,43.73375
2022-10-07T04:48:59.898Z,43.25357
2022-10-07T04:54:01.653Z,43.43733
2022-10-07T04:59:03.144Z,45.13901
2022-10-07T05:04:04.790Z,43.98464
2022-10-07T05:09:06.448Z,43.54558
2022-10-07T05:14:08.140Z,43.72889
2022-10-07T05:19:10.304Z,42.05363
2022-10-07T05:24:11.943Z,39.93672
2022-10-07T05:29:13.567Z,40.37477
2022-10-07T05:34:15.411Z,39.90502
2022-10-07T05:39:17.230Z,38.09561
2022-10-07T05:44:18.863Z,38.80333
2022-10-07T05:49:20.859Z,36.76372
2022-10-07T05:54:22.491Z,37.58488
2022-10-07T05:59:24.184Z,36.28211
2022-10-07T06:04:26.043Z,37.88317
2022-10-07T06:09:28.013Z,39.22595
2022-10-07T06:14:29.819Z,38.80097
2022-10-07T06:19:31.891Z,35.56324
2022-10-07T06:24:33.689Z,35.4498
2022-10-07T06:29:35.536Z,35.36251
2022-10-07T06:34:37.295Z,33.98174
2022-10-07T06:39:39.008Z,34.52427
2022-10-07T06:44:40.741Z,33.00533
2022-10-07T06:49:42.725Z,34.80917
2022-10-07T06:54:44.490Z,33.79223
2022-10-07T06:59:46.249Z,28.50609
2022-10-07T07:04:48.496Z,26.30823
2022-10-07T07:09:50.337Z,25.14041
2022-10-07T07:14:52.081Z,24.81949
2022-10-07T07:19:54.216Z,23.55061
2022-10-07T07:24:55.857Z,23.46878
2022-10-07T07:29:57.596Z,22.00705
2022-10-07T07:34:59.233Z,21.76951
2022-10-07T07:40:00.894Z,22.22012
2022-10-07T07:45:02.493Z,22.22505
2022-10-07T07:50:04.247Z,22.42211
2022-10-07T07:55:05.688Z,20.99655
2022-10-07T08:00:07.255Z,21.35967
2022-10-07T08:05:09.089Z,20.68573
2022-10-07T08:10:10.872Z,21.22582
2022-10-07T08:15:12.402Z,20.03956
2022-10-07T08:20:14.094Z,19.72416
2022-10-07T08:25:15.914Z,20.06373
2022-10-07T08:30:17.427Z,19.58166
2022-10-07T08:35:19.075Z,20.18802
2022-10-07T08:40:20.690Z,19.29727
2022-10-07T08:45:22.428Z,18.13165
2022-10-07T08:50:24.394Z,19.07134
2022-10-07T08:55:26.257Z,18.90088
2022-10-07T09:00:28.034Z,18.30992
2022-10-07T09:05:30.232Z,17.86461
2022-10-07T09:10:31.892Z,18.02878
2022-10-07T09:15:33.702Z,18.35612
2022-10-07T09:20:35.764Z,17.59044
2022-10-07T09:25:37.435Z,17.69023
2022-10-07T09:30:39.054Z,17.28781
2022-10-07T09:35:40.834Z,18.72413
2022-10-07T09:40:42.560Z,18.01125
2022-10-07T09:45:44.314Z,17.48254
2022-10-07T09:50:47.001Z,17.13822
2022-10-07T09:55:48.749Z,16.90527
2022-10-07T10:00:50.428Z,17.27613
2022-10-07T10:05:52.398Z,16.75524
2022-10-07T10:10:54.161Z,17.85886
2022-10-07T10:15:55.979Z,16.76882
2022-10-07T10:20:57.834Z,16.82932
2022-10-07T10:25:59.629Z,16.72899
2022-10-07T10:31:01.442Z,16.45203
2022-10-07T10:36:03.113Z,17.09
2022-10-07T10:41:04.622Z,16.81382
2022-10-07T10:46:06.190Z,15.92499
2022-10-07T10:51:08.198Z,17.0033
2022-10-07T10:56:10.031Z,17.17288
2022-10-07T11:01:11.814Z,17.06555
2022-10-07T11:06:15.660Z,16.53311
2022-10-07T11:11:18.456Z,16.19724
2022-10-07T11:16:20.231Z,16.9243
2022-10-07T11:21:22.513Z,15.85663
2022-10-07T11:26:24.274Z,15.8768
2022-10-07T11:31:26.108Z,16.38448
2022-10-07T11:36:28.107Z,16.08974
2022-10-07T11:41:29.832Z,15.18422
2022-10-07T11:46:31.720Z,15.86108
2022-10-07T11:51:33.834Z,16.63083
2022-10-07T11:56:35.441Z,15.57753
2022-10-07T12:01:37.222Z,16.74145
2022-10-07T12:06:38.712Z,15.31372
2022-10-07T12:11:40.160Z,16.43775
2022-10-07T12:16:42.458Z,16.52736
2022-10-07T12:21:44.267Z,16.82792
2022-10-07T12:26:45.987Z,17.52917
2022-10-07T12:31:47.815Z,16.97878
2022-10-07T12:36:50.012Z,16.70648
2022-10-07T12:41:51.733Z,16.81755
2022-10-07T12:46:53.569Z,16.80834
2022-10-07T12:51:55.877Z,16.71916
2022-10-07T12:56:57.636Z,16.24238
2022-10-07T13:01:59.561Z,16.82874
2022-10-07T13:07:01.514Z,17.11118
2022-10-07T13:12:03.151Z,16.75762
2022-10-07T13:17:04.869Z,17.43706
2022-10-07T13:22:06.808Z,16.83513
2022-10-07T13:27:08.665Z,16.76189
2022-10-07T13:32:10.730Z,17.47386
2022-10-07T13:37:12.417Z,16.94024
2022-10-07T13:42:18.019Z,17.51015
2022-10-07T13:47:22.387Z,17.75387
2022-10-07T13:52:24.560Z,17.65836
2022-10-07T13:57:26.644Z,17.56375
2022-10-07T14:02:28.569Z,17.32647
2022-10-07T14:07:30.710Z,17.43743
2022-10-07T14:12:32.433Z,17.45144
2022-10-07T14:17:34.193Z,18.74134
2022-10-07T14:22:36.144Z,17.89327
2022-10-07T14:27:37.901Z,18.15542
2022-10-07T14:32:39.630Z,18.46772
2022-10-07T14:37:41.564Z,18.32103
2022-10-07T14:42:43.580Z,18.62274
2022-10-07T14:47:45.507Z,18.85633
2022-10-07T14:52:47.756Z,18.98607
2022-10-07T14:57:49.748Z,18.75188
2022-10-07T15:02:51.464Z,19.56207
2022-10-07T15:07:53.214Z,20.04741
2022-10-07T15:12:55.002Z,20.31516
2022-10-07T15:17:56.731Z,20.97454
2022-10-07T15:22:58.846Z,22.19932
2022-10-07T15:28:00.679Z,21.92304
2022-10-07T15:33:02.374Z,22.36344
2022-10-07T15:38:04.032Z,22.01689
2022-10-07T15:43:05.487Z,22.52156
2022-10-07T15:48:07.276Z,22.74331
2022-10-07T15:53:08.984Z,22.8504
2022-10-07T15:58:10.738Z,25.02685
2022-10-07T16:03:12.220Z,25.19265
2022-10-07T16:08:14.085Z,25.34899
2022-10-07T16:13:15.588Z,25.6396
2022-10-07T16:18:17.369Z,25.51504
2022-10-07T16:23:19.516Z,25.23339
2022-10-07T16:28:21.288Z,24.78756
2022-10-07T16:33:22.957Z,25.27855
2022-10-07T16:38:24.663Z,26.54658
2022-10-07T16:43:26.693Z,25.46824
2022-10-07T16:48:28.415Z,23.75361
2022-10-07T16:53:30.571Z,24.5201
2022-10-07T16:58:32.204Z,24.29318
2022-10-07T17:03:33.968Z,24.53959
2022-10-07T17:08:40.489Z,24.47693
2022-10-07T17:13:44.694Z,33.21951
2022-10-07T17:18:46.464Z,42.86422
2022-10-07T17:23:48.796Z,48.5349
2022-10-07T17:28:50.603Z,50.85226
2022-10-07T17:33:52.517Z,52.22429
2022-10-07T17:38:53.982Z,53.98534
2022-10-07T17:43:55.809Z,54.84734
2022-10-07T17:48:57.608Z,55.13348
2022-10-07T17:53:59.702Z,58.75484
2022-10-07T17:59:01.238Z,59.79634
2022-10-07T18:04:02.880Z,59.92274
2022-10-07T18:09:04.806Z,61.95427
2022-10-07T18:14:06.292Z,61.80656
2022-10-07T18:19:07.986Z,63.47264
2022-10-07T18:24:09.899Z,65.38876
2022-10-07T18:29:11.361Z,67.31133
2022-10-07T18:34:13.062Z,66.40557
2022-10-07T18:39:15.174Z,67.63191
2022-10-07T18:44:16.744Z,65.55486
2022-10-07T18:49:18.512Z,66.31706
2022-10-07T18:54:20.596Z,68.2469
2022-10-07T18:59:22.051Z,71.29559
2022-10-07T19:04:23.922Z,70.44578
2022-10-07T19:09:25.527Z,70.27731
2022-10-07T19:14:27.347Z,71.23728
2022-10-07T19:19:28.811Z,69.74297
2022-10-07T19:24:30.575Z,72.14052
2022-10-07T19:29:32.277Z,69.3294
2022-10-07T19:34:33.776Z,67.81636
2022-10-07T19:39:35.503Z,69.53095
2022-10-07T19:44:37.010Z,67.29882
2022-10-07T19:49:38.793Z,69.62092
2022-10-07T19:54:40.585Z,70.27875
2022-10-07T19:59:42.311Z,71.81555
2022-10-07T20:04:44.082Z,72.31743
2022-10-07T20:09:45.860Z,70.83089
2022-10-07T20:14:47.598Z,73.43496
2022-10-07T20:19:49.338Z,72.21703
2022-10-07T20:24:51.500Z,73.09155
2022-10-07T20:29:53.254Z,73.4545
2022-10-07T20:34:55.053Z,72.81182
2022-10-07T20:39:56.851Z,74.90438
2022-10-07T20:44:58.586Z,74.07632
2022-10-07T20:50:00.365Z,75.03457
2022-10-07T20:55:02.101Z,76.37505
2022-10-07T21:00:03.773Z,78.00465
2022-10-07T21:05:05.351Z,79.67349
2022-10-07T21:10:07.121Z,79.09478
2022-10-07T21:15:08.799Z,79.13606
2022-10-07T21:20:10.535Z,79.30865
2022-10-07T21:25:12.516Z,83.84879
2022-10-07T21:30:14.213Z,82.56841
2022-10-07T21:35:15.939Z,85.29761
2022-10-07T21:40:17.563Z,84.57832
2022-10-07T21:45:19.312Z,82.83513
2022-10-07T21:50:21.422Z,84.75656
2022-10-07T21:55:23.410Z,85.78826
2022-10-07T22:00:25.269Z,85.44028
2022-10-07T22:05:27.047Z,86.84205
2022-10-07T22:10:29.053Z,86.74683
2022-10-07T22:15:30.798Z,86.70299
2022-10-07T22:20:32.806Z,87.27358
2022-10-07T22:25:34.769Z,89.46173
2022-10-07T22:30:36.607Z,86.66718
2022-10-07T22:35:38.451Z,88.8903
2022-10-07T22:40:40.567Z,92.18949
2022-10-07T22:45:42.293Z,91.275
2022-10-07T22:50:44.020Z,88.26717
2022-10-07T22:55:47.135Z,89.1065
2022-10-07T23:00:48.877Z,92.38102
2022-10-07T23:05:50.532Z,93.53214
2022-10-07T23:10:52.282Z,92.64744
2022-10-07T23:15:54.071Z,94.32051
2022-10-07T23:20:55.868Z,95.75753
2022-10-07T23:25:57.851Z,93.16708
2022-10-07T23:30:59.761Z,95.08851
2022-10-07T23:36:01.867Z,93.67512
2022-10-07T23:41:03.770Z,95.12812
2022-10-07T23:46:05.731Z,94.75853
2022-10-07T23:51:07.290Z,95.25436
2022-10-07T23:56:09.241Z,93.58729
